Kalamazoo Battle Creek International Airport
KAZO : now visible

Airfield :











YOU CAN JOIN US ON...

 
LOGIN :

Register | Disclaimer

   EN    FR    IT 

 









Legend :    VFR   Marginal VFR   IFR   Intensive IFR   Very Intensive IFR
Visi :
Ceiling :
>= 8 km
>= 3000ft
5 to 8 km
1000 to 3000 ft
1500m to 5 km
500 to 1000 ft
800 to 1500m
200 to 500 ft
< 800m
< 200 ft
Symbols :   Thunderstorms  Fog  Heavy snow  Heavy precipitations  Wind > 20 kt






- Airport Elevation : 874 ft
- IATA code : AZO


KAZO - Kalamazoo Battle Creek International

CURRENT METAR :
  • 070053Z 08003KT 10SM OVC046 14/M05 A2998 RMK AO2 SLP156 T01441050

EXPIRED METARs :
  • 062353Z 14003KT 10SM OVC055 15/M07 A2999 RMK AO2 SLP157 T01501067 10172 20144 56011
  • 062253Z 18008KT 10SM OVC065 15/M06 A3000 RMK AO2 SLP161 T01501061
  • 062153Z 19010KT 10SM SCT100 17/M06 A2998 RMK AO2 SLP157 T01671061

TAF KAZO
Valid from the 07 at 00:00 until the 08 at 00:00 UTC


062340Z 0700/0724 18005KT P6SM OVC070
FM070700 VRB04KT P6SM -SHRA OVC025
FM070900 VRB04KT 4SM -SHRA OVC009
FM071500 18005KT 2SM BR OVC003
FM071800 24007KT P6SM BKN010
FM072100 25010G18KT P6SM BKN060



MET'MAP, your aeronautical weather chart ! - Copyright ORBIFLY December 2007 - Disclaimer

ORBIFLY MET'MAP TEAM :

Programming & Development : Alexandra Zaïnal
Concept & original design : Baudouin d'Aumeries
Assistance for programming : Marc-Olivier Méhu
Technical & hardware support : Manuel Goepfert

Contact : metmap@orbifly.com




SOURCES & CREDITS :

   NOAA       Earth
Advisory